Time;durP1;ratioP1;P1;durP2;ratioP2;P2;SDS_P1;SDS_P2;PMS_P1;PMS_P2;Temp;Humidity;BMP_temperature;BMP_pressure;BME280_temperature;BME280_humidity;BME280_pressure;Samples;Min_cycle;Max_cycle;Signal;HPM_P1;HPM_P2
2021/12/01 00:00:53;;;;;;;9.80;5.13;;;4.60;98.30;;;;;;5151084;23;20464;-83
2021/12/01 00:02:57;;;;;;;12.77;5.90;;;4.70;98.30;;;;;;5142953;23;20440;-84
2021/12/01 00:05:00;;;;;;;16.00;5.47;;;4.60;98.30;;;;;;5151810;23;20432;-83
2021/12/01 00:07:06;;;;;;;16.00;5.33;;;4.70;98.30;;;;;;5143358;23;20436;-83
2021/12/01 00:09:09;;;;;;;13.53;5.27;;;4.70;98.30;;;;;;5151868;23;20455;-84
2021/12/01 00:11:14;;;;;;;14.87;5.77;;;4.70;98.30;;;;;;5151031;23;20526;-84
2021/12/01 00:13:21;;;;;;;15.97;5.80;;;4.80;98.30;;;;;;5151608;23;20403;-84
2021/12/01 00:15:24;;;;;;;10.70;5.63;;;4.80;98.30;;;;;;5151433;23;20914;-83
2021/12/01 00:17:27;;;;;;;19.10;5.40;;;4.80;98.30;;;;;;5143431;23;20959;-83
2021/12/01 00:19:33;;;;;;;12.80;5.17;;;4.80;98.30;;;;;;5151403;23;20735;-84
2021/12/01 00:21:36;;;;;;;12.27;4.60;;;4.80;98.30;;;;;;5151445;23;20480;-83
2021/12/01 00:23:39;;;;;;;18.03;5.77;;;4.90;98.30;;;;;;5151210;23;20447;-84
2021/12/01 00:25:43;;;;;;;14.17;6.23;;;4.90;98.30;;;;;;5151439;23;20410;-84
2021/12/01 00:27:47;;;;;;;12.80;5.93;;;4.90;98.30;;;;;;5151265;23;20453;-84
2021/12/01 00:29:50;;;;;;;11.20;5.10;;;4.90;98.30;;;;;;5150915;23;20440;-84
2021/12/01 00:31:53;;;;;;;19.50;6.77;;;4.90;98.30;;;;;;5150390;23;20427;-83
2021/12/01 00:33:57;;;;;;;14.77;6.27;;;4.90;98.30;;;;;;5152787;23;20480;-83
2021/12/01 00:36:00;;;;;;;16.23;5.03;;;4.90;98.30;;;;;;5150786;23;20411;-83
2021/12/01 00:38:03;;;;;;;10.30;4.87;;;4.80;98.30;;;;;;5150719;23;20808;-84
2021/12/01 00:40:09;;;;;;;18.80;5.90;;;4.70;98.30;;;;;;5150618;23;20432;-84
2021/12/01 00:42:13;;;;;;;15.60;5.70;;;4.70;98.30;;;;;;5150099;23;20464;-84
2021/12/01 00:44:17;;;;;;;13.27;4.80;;;4.70;98.30;;;;;;5150321;23;20442;-85
2021/12/01 00:46:23;;;;;;;17.23;5.60;;;4.70;98.30;;;;;;5150476;23;20464;-83
2021/12/01 00:48:27;;;;;;;13.37;5.33;;;4.70;98.30;;;;;;5150374;23;20494;-84
2021/12/01 00:50:33;;;;;;;15.07;5.70;;;4.80;98.30;;;;;;5141600;23;20444;-85
2021/12/01 00:52:36;;;;;;;13.80;6.27;;;4.80;98.30;;;;;;5150157;23;20457;-85
2021/12/01 00:54:39;;;;;;;12.60;5.50;;;4.80;98.30;;;;;;5149916;23;20425;-84
2021/12/01 00:56:43;;;;;;;14.87;5.80;;;4.90;98.30;;;;;;5150494;23;20956;-83
2021/12/01 00:58:46;;;;;;;14.17;5.97;;;4.90;98.30;;;;;;5150230;23;20415;-85
2021/12/01 01:00:51;;;;;;;17.67;6.50;;;4.90;98.30;;;;;;5141929;23;20459;-85
2021/12/01 01:02:56;;;;;;;20.17;7.03;;;4.80;98.30;;;;;;5149621;23;20458;-84
2021/12/01 01:04:59;;;;;;;16.30;6.40;;;4.90;98.30;;;;;;5150728;23;20737;-85
2021/12/01 01:07:03;;;;;;;23.37;6.63;;;4.80;98.30;;;;;;5150157;23;20516;-84
2021/12/01 01:09:07;;;;;;;22.37;5.90;;;4.80;98.30;;;;;;5150208;23;20508;-84
2021/12/01 01:16:22;;;;;;;17.00;6.20;;;4.70;98.30;;;;;;5141632;23;20435;-85
2021/12/01 01:18:45;;;;;;;14.27;6.60;;;4.60;98.30;;;;;;5150554;23;20444;-84
2021/12/01 01:20:56;;;;;;;19.60;7.90;;;4.70;98.30;;;;;;5150364;23;20528;-85
2021/12/01 01:23:24;;;;;;;15.73;7.40;;;4.70;98.30;;;;;;5150717;23;20473;-85
2021/12/01 01:25:33;;;;;;;19.53;8.40;;;4.60;98.30;;;;;;5150873;23;20435;-84
2021/12/01 01:28:00;;;;;;;18.20;8.30;;;4.60;98.30;;;;;;5150927;23;20468;-84
2021/12/01 01:30:08;;;;;;;20.90;12.37;;;4.60;98.30;;;;;;5150502;23;20511;-84
2021/12/01 01:32:36;;;;;;;20.70;8.60;;;4.70;98.30;;;;;;5150284;23;20448;-85
2021/12/01 01:35:04;;;;;;;21.63;9.00;;;4.60;98.30;;;;;;5150561;23;20473;-85
2021/12/01 01:37:07;;;;;;;17.27;9.23;;;4.60;98.30;;;;;;5150323;23;20425;-83
2021/12/01 01:39:11;;;;;;;15.87;9.13;;;4.60;98.30;;;;;;5150509;23;20404;-84
2021/12/01 01:41:18;;;;;;;19.37;9.17;;;4.60;98.30;;;;;;5150189;23;20420;-85
2021/12/01 01:43:21;;;;;;;19.23;9.53;;;4.60;98.30;;;;;;5150056;23;20396;-84
2021/12/01 01:45:24;;;;;;;20.87;10.63;;;4.60;98.30;;;;;;5150725;23;20426;-86
2021/12/01 01:47:27;;;;;;;17.63;10.53;;;4.60;98.30;;;;;;5150415;23;20400;-84
2021/12/01 01:49:43;;;;;;;24.17;11.40;;;4.60;98.30;;;;;;5150145;23;20742;-84
2021/12/01 01:51:47;;;;;;;20.30;10.67;;;4.70;98.30;;;;;;5149531;23;20849;-85
2021/12/01 01:53:54;;;;;;;22.50;9.93;;;4.60;98.30;;;;;;5149880;23;20430;-84
2021/12/01 01:55:59;;;;;;;23.47;12.23;;;4.70;98.30;;;;;;5150422;23;20727;-84
2021/12/01 01:58:03;;;;;;;17.93;11.20;;;4.70;98.30;;;;;;5150135;23;20412;-85
2021/12/01 02:00:08;;;;;;;19.53;10.70;;;4.70;98.30;;;;;;5150671;23;20429;-86
2021/12/01 02:02:11;;;;;;;19.90;11.10;;;4.60;98.30;;;;;;5150402;23;20472;-84
2021/12/01 02:04:17;;;;;;;20.30;12.27;;;4.60;98.30;;;;;;5150109;23;20425;-85
2021/12/01 02:06:23;;;;;;;20.20;9.93;;;4.60;98.30;;;;;;5150872;23;20425;-84
2021/12/01 02:08:29;;;;;;;20.27;11.47;;;4.70;98.30;;;;;;5150339;23;20418;-85
2021/12/01 02:10:32;;;;;;;21.53;11.33;;;4.60;98.30;;;;;;5150450;23;21083;-86
2021/12/01 02:12:38;;;;;;;21.70;12.37;;;4.70;98.30;;;;;;5150754;23;20492;-85
2021/12/01 02:14:43;;;;;;;20.93;12.93;;;4.60;98.30;;;;;;5151807;23;20865;-83
2021/12/01 02:16:50;;;;;;;19.87;12.40;;;4.70;98.30;;;;;;5151226;23;20745;-83
2021/12/01 02:18:54;;;;;;;20.47;11.53;;;4.70;98.30;;;;;;5142984;23;20547;-85
2021/12/01 02:21:27;;;;;;;21.30;12.70;;;4.60;98.30;;;;;;5150313;23;20456;-84
2021/12/01 02:23:56;;;;;;;20.63;11.93;;;4.70;98.30;;;;;;5149789;23;20399;-84
2021/12/01 02:25:59;;;;;;;18.40;13.33;;;4.70;98.30;;;;;;5150646;23;20487;-84
2021/12/01 02:28:26;;;;;;;20.13;11.97;;;4.70;98.30;;;;;;5150767;23;20435;-83
2021/12/01 02:30:29;;;;;;;24.90;12.17;;;4.70;98.30;;;;;;5150086;23;20486;-85
2021/12/01 02:32:36;;;;;;;17.60;11.60;;;4.70;98.30;;;;;;5149949;23;20422;-84
2021/12/01 02:34:45;;;;;;;22.00;11.23;;;4.80;98.30;;;;;;5150283;23;20438;-85
2021/12/01 02:36:53;;;;;;;22.13;11.43;;;4.70;98.30;;;;;;5152926;23;20475;-84
2021/12/01 02:38:56;;;;;;;20.57;11.07;;;4.80;98.30;;;;;;5163833;23;20444;-84
2021/12/01 02:40:59;;;;;;;17.60;10.20;;;4.80;98.30;;;;;;5150449;23;20534;-85
2021/12/01 02:43:02;;;;;;;22.80;11.73;;;4.80;98.30;;;;;;5150773;23;20449;-85
2021/12/01 02:45:07;;;;;;;16.20;10.63;;;4.80;98.30;;;;;;5142195;23;20404;-85
2021/12/01 02:47:10;;;;;;;19.23;11.20;;;4.80;98.30;;;;;;5150020;23;20959;-85
2021/12/01 02:49:13;;;;;;;15.87;10.97;;;4.80;98.30;;;;;;5149852;23;20914;-84
2021/12/01 02:51:18;;;;;;;22.60;10.93;;;4.80;98.30;;;;;;5149570;23;20451;-84
2021/12/01 02:53:24;;;;;;;19.13;10.77;;;4.90;98.30;;;;;;5150164;23;20979;-84
2021/12/01 02:55:29;;;;;;;25.77;14.43;;;4.90;98.30;;;;;;5150103;23;20477;-85
2021/12/01 02:57:43;;;;;;;17.20;9.93;;;4.90;98.30;;;;;;5150607;23;20962;-85
2021/12/01 02:59:46;;;;;;;16.37;9.90;;;4.90;98.30;;;;;;5150467;23;20439;-85
2021/12/01 03:01:50;;;;;;;11.87;9.20;;;4.90;98.30;;;;;;5149466;23;20507;-85
2021/12/01 03:03:54;;;;;;;13.37;9.50;;;4.90;98.30;;;;;;5149485;23;20516;-85
2021/12/01 03:05:58;;;;;;;10.73;8.10;;;4.90;98.30;;;;;;5149959;23;20421;-85
2021/12/01 03:08:02;;;;;;;14.20;9.07;;;4.90;98.30;;;;;;5150218;23;20436;-85
2021/12/01 03:10:07;;;;;;;14.00;9.43;;;4.90;98.30;;;;;;5151202;23;20429;-85
2021/12/01 03:12:11;;;;;;;14.03;9.57;;;4.90;98.30;;;;;;5151103;23;20427;-85
2021/12/01 03:14:16;;;;;;;12.97;8.97;;;5.00;98.30;;;;;;5150813;23;20492;-85
2021/12/01 03:16:19;;;;;;;14.13;8.93;;;5.00;98.30;;;;;;5151796;23;20399;-85
2021/12/01 03:18:23;;;;;;;12.03;7.67;;;4.90;98.30;;;;;;5152583;23;20820;-85
2021/12/01 03:20:26;;;;;;;9.80;7.57;;;5.00;98.30;;;;;;5151772;23;20421;-85
2021/12/01 03:22:29;;;;;;;10.50;7.67;;;5.00;98.30;;;;;;5152708;23;20511;-85
2021/12/01 03:24:33;;;;;;;13.43;8.17;;;5.00;98.30;;;;;;5152687;23;20418;-85
2021/12/01 03:26:38;;;;;;;11.03;7.50;;;5.00;98.30;;;;;;5151956;23;20500;-84
2021/12/01 03:28:41;;;;;;;8.17;6.60;;;5.10;98.30;;;;;;5151806;23;20392;-84
2021/12/01 03:30:45;;;;;;;10.00;6.00;;;5.00;98.30;;;;;;5152011;23;20450;-85
2021/12/01 03:32:48;;;;;;;10.23;6.20;;;5.00;98.30;;;;;;5151910;23;20406;-86
2021/12/01 03:34:51;;;;;;;8.27;6.40;;;5.00;98.30;;;;;;5151638;23;20421;-84
2021/12/01 03:36:54;;;;;;;5.93;5.30;;;5.00;98.30;;;;;;5151498;23;20487;-84
2021/12/01 03:38:57;;;;;;;7.03;5.70;;;5.00;98.30;;;;;;5151915;23;20416;-84
2021/12/01 03:41:00;;;;;;;7.03;5.43;;;5.10;98.30;;;;;;5152228;23;20427;-84
2021/12/01 03:43:05;;;;;;;5.47;4.97;;;5.10;98.30;;;;;;5164407;23;20463;-84
2021/12/01 03:45:09;;;;;;;6.73;5.30;;;5.10;98.30;;;;;;5151821;23;20425;-84
2021/12/01 03:47:12;;;;;;;5.73;5.23;;;5.10;98.30;;;;;;5151825;23;20417;-84
2021/12/01 03:49:16;;;;;;;6.23;4.60;;;5.10;98.30;;;;;;5151545;23;20418;-83
2021/12/01 03:51:19;;;;;;;6.63;4.80;;;5.10;98.30;;;;;;5152144;23;20533;-83
2021/12/01 03:53:24;;;;;;;6.30;4.70;;;5.10;98.30;;;;;;5152245;23;20425;-84
2021/12/01 03:55:28;;;;;;;7.13;5.47;;;5.10;98.30;;;;;;5152046;23;20659;-84
2021/12/01 03:57:31;;;;;;;5.90;5.30;;;5.10;98.30;;;;;;5151968;23;20432;-85
2021/12/01 03:59:35;;;;;;;7.50;5.90;;;5.10;98.30;;;;;;5151874;23;20426;-84
2021/12/01 04:01:38;;;;;;;7.70;5.07;;;5.10;98.30;;;;;;5150949;23;20954;-83
2021/12/01 04:03:42;;;;;;;8.67;5.93;;;5.10;98.30;;;;;;5150757;23;20435;-83
2021/12/01 04:05:45;;;;;;;6.00;5.40;;;5.10;98.30;;;;;;5143393;23;20461;-83
2021/12/01 04:07:48;;;;;;;6.60;4.93;;;5.20;98.30;;;;;;5151638;23;20877;-84
2021/12/01 04:09:52;;;;;;;8.77;5.10;;;5.10;98.30;;;;;;5151346;23;20428;-83
2021/12/01 04:11:55;;;;;;;8.60;6.07;;;5.10;98.30;;;;;;5151296;23;20443;-83
2021/12/01 04:13:58;;;;;;;7.20;5.60;;;5.10;98.30;;;;;;5149804;23;20399;-84
2021/12/01 04:16:04;;;;;;;6.63;5.00;;;5.20;98.30;;;;;;5150953;23;20425;-84
2021/12/01 04:18:07;;;;;;;6.63;5.13;;;5.20;98.30;;;;;;5151230;23;20392;-82
2021/12/01 04:20:13;;;;;;;7.63;4.90;;;5.20;98.30;;;;;;5151363;23;20480;-84
2021/12/01 04:22:16;;;;;;;7.50;5.17;;;5.20;98.30;;;;;;5151518;23;20396;-84
2021/12/01 04:24:19;;;;;;;6.07;4.80;;;5.20;98.30;;;;;;5150763;23;20491;-84
2021/12/01 04:26:24;;;;;;;6.10;5.20;;;5.20;98.30;;;;;;5151520;23;20432;-83
2021/12/01 04:28:27;;;;;;;7.10;4.90;;;5.20;98.30;;;;;;5151192;23;20447;-83
2021/12/01 04:30:30;;;;;;;5.47;4.90;;;5.20;98.30;;;;;;5151379;23;20596;-84
2021/12/01 04:32:35;;;;;;;4.67;4.20;;;5.30;98.30;;;;;;5150863;23;20874;-84
2021/12/01 04:34:38;;;;;;;6.37;5.03;;;5.20;98.30;;;;;;5152022;23;20400;-83
2021/12/01 04:36:43;;;;;;;6.63;5.90;;;5.30;98.30;;;;;;5151786;23;20432;-83
2021/12/01 04:38:46;;;;;;;5.23;4.57;;;5.20;98.30;;;;;;5151781;23;20736;-84
2021/12/01 04:40:49;;;;;;;5.73;5.00;;;5.30;98.30;;;;;;5151293;23;20536;-82
2021/12/01 04:42:53;;;;;;;7.20;5.17;;;5.30;98.30;;;;;;5150900;23;20404;-83
2021/12/01 04:44:56;;;;;;;9.80;6.07;;;5.30;98.30;;;;;;5152415;23;20429;-82
2021/12/01 04:47:02;;;;;;;8.37;5.57;;;5.30;98.30;;;;;;5152947;23;21225;-83
2021/12/01 04:49:06;;;;;;;7.10;5.93;;;5.30;98.30;;;;;;5164150;23;20944;-83
2021/12/01 04:51:09;;;;;;;6.10;5.43;;;5.30;98.30;;;;;;5151864;23;20946;-83
2021/12/01 04:53:13;;;;;;;6.70;5.80;;;5.30;98.30;;;;;;5151233;23;20817;-83
2021/12/01 04:55:18;;;;;;;7.60;5.70;;;5.30;98.30;;;;;;5151328;23;20428;-83
2021/12/01 04:57:21;;;;;;;7.10;5.90;;;5.40;98.30;;;;;;5151442;23;20422;-83
2021/12/01 04:59:25;;;;;;;7.20;5.33;;;5.40;98.30;;;;;;5151313;23;20407;-83
2021/12/01 05:01:28;;;;;;;8.07;5.93;;;5.40;98.30;;;;;;5150843;23;20419;-83
2021/12/01 05:03:31;;;;;;;6.40;5.80;;;5.40;98.30;;;;;;5151069;23;20467;-83
2021/12/01 05:05:37;;;;;;;6.43;5.00;;;5.40;98.30;;;;;;5151404;23;20396;-83
2021/12/01 05:07:40;;;;;;;5.17;4.67;;;5.50;98.30;;;;;;5151275;23;20430;-84
2021/12/01 05:09:44;;;;;;;5.90;5.00;;;5.40;98.30;;;;;;5151520;23;20423;-84
2021/12/01 05:11:47;;;;;;;7.33;5.40;;;5.50;98.30;;;;;;5151212;23;21017;-84
2021/12/01 05:13:55;;;;;;;6.67;5.80;;;5.50;98.30;;;;;;5150780;23;20464;-84
2021/12/01 05:15:58;;;;;;;6.07;4.80;;;5.50;98.30;;;;;;5151479;23;20412;-84
2021/12/01 05:18:01;;;;;;;6.27;5.67;;;5.50;98.30;;;;;;5150730;23;20429;-83
2021/12/01 05:20:11;;;;;;;7.57;5.87;;;5.50;98.30;;;;;;5150627;23;20441;-83
2021/12/01 05:22:16;;;;;;;7.00;5.63;;;5.50;98.30;;;;;;5150405;23;20412;-83
2021/12/01 05:24:19;;;;;;;7.90;6.20;;;5.50;98.30;;;;;;5150126;23;20486;-83
2021/12/01 05:26:22;;;;;;;8.50;6.20;;;5.60;98.30;;;;;;5151251;23;20400;-83
2021/12/01 05:28:26;;;;;;;6.43;5.40;;;5.60;98.30;;;;;;5150919;23;20504;-83
2021/12/01 05:30:29;;;;;;;7.30;5.80;;;5.60;98.30;;;;;;5150342;23;20903;-84
2021/12/01 05:32:32;;;;;;;7.43;6.30;;;5.60;98.30;;;;;;5151101;23;20463;-83
2021/12/01 05:34:36;;;;;;;6.80;5.50;;;5.60;98.30;;;;;;5150920;23;20499;-84
2021/12/01 05:36:39;;;;;;;7.10;6.07;;;5.60;98.30;;;;;;5151218;23;20487;-84
2021/12/01 05:38:44;;;;;;;7.77;6.03;;;5.70;98.30;;;;;;5151079;23;20495;-84
2021/12/01 05:40:49;;;;;;;7.17;6.17;;;5.70;98.30;;;;;;5151232;23;20455;-83
2021/12/01 05:42:53;;;;;;;7.33;5.83;;;5.70;98.30;;;;;;5150470;23;20436;-84
2021/12/01 05:44:56;;;;;;;6.63;5.60;;;5.70;98.30;;;;;;5150551;23;20433;-84
2021/12/01 05:46:59;;;;;;;7.30;6.50;;;5.80;98.30;;;;;;5150430;23;20505;-84
2021/12/01 05:49:04;;;;;;;7.20;6.30;;;5.80;98.30;;;;;;5152012;23;20786;-83
2021/12/01 05:51:07;;;;;;;7.30;5.90;;;5.80;98.30;;;;;;5152792;23;20491;-84
2021/12/01 05:53:10;;;;;;;8.40;6.53;;;5.80;98.30;;;;;;5160145;23;20467;-84
2021/12/01 05:55:16;;;;;;;7.23;6.20;;;5.90;98.30;;;;;;5158734;23;20437;-83
2021/12/01 05:57:19;;;;;;;7.70;6.20;;;5.80;98.30;;;;;;5154801;23;20428;-83
2021/12/01 05:59:22;;;;;;;8.67;7.10;;;6.00;98.30;;;;;;5150595;23;20762;-83
2021/12/01 06:01:26;;;;;;;8.20;6.53;;;6.00;98.30;;;;;;5150352;23;20426;-83
2021/12/01 06:03:29;;;;;;;8.87;6.93;;;6.00;98.30;;;;;;5149872;23;20482;-83
2021/12/01 06:05:32;;;;;;;9.47;7.30;;;6.00;98.30;;;;;;5149100;23;20433;-83
2021/12/01 06:07:36;;;;;;;9.93;8.27;;;6.10;98.30;;;;;;5149880;23;20410;-82
2021/12/01 06:09:39;;;;;;;10.67;8.40;;;6.00;98.30;;;;;;5149911;23;20404;-84
2021/12/01 06:11:46;;;;;;;10.80;8.80;;;6.00;98.30;;;;;;5150100;23;20453;-83
2021/12/01 06:13:51;;;;;;;11.70;9.60;;;6.00;98.30;;;;;;5149853;23;20425;-83
2021/12/01 06:15:54;;;;;;;11.47;10.10;;;6.10;98.30;;;;;;5150198;23;20896;-83
2021/12/01 06:17:58;;;;;;;14.47;9.93;;;6.20;98.30;;;;;;5142126;23;20409;-83
2021/12/01 06:20:05;;;;;;;12.70;9.23;;;6.20;98.30;;;;;;5149876;23;20431;-84
2021/12/01 06:22:13;;;;;;;13.00;11.07;;;6.30;98.30;;;;;;5150268;23;20445;-83
2021/12/01 06:24:16;;;;;;;16.00;12.20;;;6.40;98.30;;;;;;5150244;23;20438;-83
2021/12/01 06:26:19;;;;;;;16.40;11.90;;;6.50;98.30;;;;;;5150629;23;20472;-83
2021/12/01 06:28:23;;;;;;;16.20;13.30;;;6.60;98.30;;;;;;5151075;23;20794;-83
2021/12/01 06:30:31;;;;;;;16.67;12.20;;;6.70;98.30;;;;;;5150548;23;20411;-83
2021/12/01 06:32:34;;;;;;;15.40;12.47;;;6.90;98.30;;;;;;5150783;23;20450;-83
2021/12/01 06:34:37;;;;;;;18.70;13.47;;;6.90;98.30;;;;;;5150279;23;20429;-82
2021/12/01 06:36:40;;;;;;;18.17;13.50;;;7.00;98.30;;;;;;5151224;23;20924;-83
2021/12/01 06:38:51;;;;;;;16.97;11.80;;;7.10;98.30;;;;;;5151407;23;20421;-83
2021/12/01 06:40:54;;;;;;;16.93;13.17;;;7.20;98.30;;;;;;5151066;23;20445;-83
2021/12/01 06:42:57;;;;;;;16.50;12.27;;;7.20;98.30;;;;;;5150792;23;20427;-83
2021/12/01 06:45:03;;;;;;;15.27;11.07;;;7.30;98.30;;;;;;5150418;23;20945;-84
2021/12/01 06:47:08;;;;;;;15.50;10.60;;;7.50;98.30;;;;;;5150845;23;20744;-83
2021/12/01 06:49:11;;;;;;;14.73;9.50;;;7.70;98.30;;;;;;5150351;23;20425;-83
2021/12/01 06:51:14;;;;;;;14.43;9.20;;;7.80;98.30;;;;;;5150255;23;20522;-84
2021/12/01 06:53:17;;;;;;;13.50;8.20;;;7.90;98.30;;;;;;5150350;23;20508;-84
2021/12/01 06:55:23;;;;;;;13.20;6.77;;;8.00;98.30;;;;;;5150668;23;20970;-83
2021/12/01 06:57:27;;;;;;;10.20;7.10;;;8.10;98.30;;;;;;5152223;23;20479;-84
2021/12/01 06:59:30;;;;;;;8.47;5.97;;;8.20;98.30;;;;;;5159431;23;20424;-84
2021/12/01 07:01:34;;;;;;;11.53;7.73;;;8.30;98.30;;;;;;5151627;23;20472;-83
2021/12/01 07:03:38;;;;;;;12.43;7.70;;;8.30;98.30;;;;;;5150612;23;20423;-84
2021/12/01 07:05:43;;;;;;;12.07;8.17;;;8.40;98.30;;;;;;5150852;23;20508;-84
2021/12/01 07:07:46;;;;;;;10.47;6.60;;;8.40;98.30;;;;;;5150861;23;20427;-83
2021/12/01 07:09:51;;;;;;;9.80;6.97;;;8.40;98.30;;;;;;5150780;23;20511;-85
2021/12/01 07:11:54;;;;;;;9.40;6.43;;;8.40;98.30;;;;;;5151095;23;21002;-84
2021/12/01 07:13:57;;;;;;;7.67;5.43;;;8.40;98.30;;;;;;5151012;23;20880;-84
2021/12/01 07:16:01;;;;;;;10.27;6.87;;;8.50;98.30;;;;;;5151158;23;20425;-84
2021/12/01 07:18:06;;;;;;;11.23;6.23;;;8.50;98.30;;;;;;5151298;23;20509;-84
2021/12/01 07:20:11;;;;;;;8.50;5.80;;;8.50;98.30;;;;;;5150181;23;20757;-85
2021/12/01 07:22:14;;;;;;;8.33;5.57;;;8.50;98.30;;;;;;5150997;23;20445;-84
2021/12/01 07:24:20;;;;;;;8.00;6.23;;;8.50;98.30;;;;;;5149052;23;20508;-86
2021/12/01 07:26:23;;;;;;;7.33;5.20;;;8.50;98.30;;;;;;5150504;23;20757;-87
2021/12/01 07:28:26;;;;;;;7.50;5.60;;;8.50;98.30;;;;;;5150736;23;20435;-85
2021/12/01 07:30:29;;;;;;;9.03;6.73;;;8.50;98.30;;;;;;5150237;23;20426;-86
2021/12/01 07:32:32;;;;;;;7.80;6.03;;;8.50;98.30;;;;;;5151750;23;20422;-84
2021/12/01 07:34:42;;;;;;;7.40;4.97;;;8.50;98.30;;;;;;5151896;23;20933;-85
2021/12/01 07:36:45;;;;;;;7.30;5.63;;;8.50;98.30;;;;;;5151084;23;20514;-86
2021/12/01 07:38:50;;;;;;;7.50;5.43;;;8.50;98.30;;;;;;5154751;23;20429;-86
2021/12/01 07:40:56;;;;;;;6.97;4.90;;;8.50;98.30;;;;;;5151826;23;20466;-86
2021/12/01 07:43:00;;;;;;;7.23;5.40;;;8.50;98.30;;;;;;5152938;23;20757;-86
2021/12/01 07:45:08;;;;;;;6.20;5.07;;;8.50;98.30;;;;;;5152423;23;20429;-86
2021/12/01 07:47:22;;;;;;;;;;;;;;;;;;;;;
2021/12/01 07:49:50;;;;;;;5.90;4.80;;;8.50;98.30;;;;;;5134353;23;20456;-85
2021/12/01 07:51:54;;;;;;;6.80;5.80;;;8.50;98.30;;;;;;5150942;23;20784;-85
2021/12/01 07:54:03;;;;;;;8.77;6.90;;;8.50;98.30;;;;;;5149879;23;20522;-86
2021/12/01 07:56:07;;;;;;;7.20;5.43;;;8.40;98.30;;;;;;5152138;23;20429;-85
2021/12/01 07:58:11;;;;;;;11.80;6.63;;;8.40;98.30;;;;;;5151098;23;20432;-85
2021/12/01 08:00:15;;;;;;;6.70;5.70;;;8.40;98.30;;;;;;5151019;23;20421;-85
2021/12/01 08:02:21;;;;;;;8.00;6.17;;;8.40;98.30;;;;;;5150579;23;20450;-85
2021/12/01 08:04:24;;;;;;;5.73;4.90;;;8.40;98.30;;;;;;5151230;23;20511;-85
2021/12/01 08:06:30;;;;;;;7.53;5.57;;;8.40;98.30;;;;;;5161271;23;20500;-84
2021/12/01 08:08:33;;;;;;;9.43;7.57;;;8.40;98.30;;;;;;5151213;23;20456;-85
2021/12/01 08:10:37;;;;;;;9.80;8.50;;;8.40;98.30;;;;;;5150668;23;20530;-85
2021/12/01 08:12:44;;;;;;;9.83;7.47;;;8.40;98.30;;;;;;5151274;23;20500;-85
2021/12/01 08:14:47;;;;;;;8.70;7.03;;;8.40;98.30;;;;;;5150755;23;20425;-85
2021/12/01 08:16:51;;;;;;;9.67;8.63;;;8.30;98.30;;;;;;5150982;23;20799;-85
2021/12/01 08:18:55;;;;;;;10.43;7.77;;;8.40;98.30;;;;;;5152904;23;20935;-86
2021/12/01 08:20:58;;;;;;;11.00;9.40;;;8.30;98.30;;;;;;5152423;23;20450;-85
2021/12/01 08:23:03;;;;;;;11.00;6.77;;;8.30;98.30;;;;;;5150484;23;20441;-86
2021/12/01 08:25:07;;;;;;;9.10;7.50;;;8.30;98.30;;;;;;5150449;23;20465;-86
2021/12/01 08:27:10;;;;;;;10.13;7.10;;;8.30;98.30;;;;;;5151763;23;20429;-85
2021/12/01 08:29:19;;;;;;;9.70;7.60;;;8.30;98.30;;;;;;5151856;23;20511;-87
2021/12/01 08:31:23;;;;;;;9.83;8.60;;;8.20;98.30;;;;;;5152675;23;20509;-85
2021/12/01 08:33:26;;;;;;;8.30;7.17;;;8.30;98.30;;;;;;5152328;23;20819;-86
2021/12/01 08:35:29;;;;;;;12.60;9.90;;;8.30;98.30;;;;;;5152138;23;20513;-86
2021/12/01 08:37:32;;;;;;;9.07;7.80;;;8.20;98.30;;;;;;5151465;23;20432;-86
2021/12/01 08:39:37;;;;;;;11.37;9.60;;;8.20;98.30;;;;;;5151507;23;20918;-87
2021/12/01 08:41:40;;;;;;;8.90;7.30;;;8.20;98.30;;;;;;5151573;23;20446;-86
2021/12/01 08:43:43;;;;;;;8.50;7.10;;;8.20;98.30;;;;;;5151193;23;20526;-86
2021/12/01 08:45:46;;;;;;;10.10;7.97;;;8.20;98.30;;;;;;5151419;23;20445;-86
2021/12/01 08:47:49;;;;;;;9.50;7.90;;;8.20;98.30;;;;;;5152221;23;20428;-86
2021/12/01 08:49:53;;;;;;;9.87;8.53;;;8.20;98.30;;;;;;5152189;23;20811;-86
2021/12/01 08:51:56;;;;;;;10.93;8.10;;;8.20;98.30;;;;;;5151491;23;20445;-86
2021/12/01 08:53:59;;;;;;;10.23;7.60;;;8.10;98.30;;;;;;5151802;23;20434;-85
2021/12/01 08:56:06;;;;;;;8.70;7.37;;;8.20;98.30;;;;;;5151272;23;20516;-84
2021/12/01 08:58:10;;;;;;;8.43;6.30;;;8.20;98.30;;;;;;5151190;23;20429;-85
2021/12/01 09:00:14;;;;;;;7.97;6.83;;;8.20;98.30;;;;;;5151528;23;20429;-85
2021/12/01 09:02:18;;;;;;;6.97;5.83;;;8.20;98.30;;;;;;5150859;23;20445;-85
2021/12/01 09:04:21;;;;;;;10.13;8.97;;;8.20;98.30;;;;;;5151056;23;20447;-85
2021/12/01 09:06:24;;;;;;;8.40;6.70;;;8.20;98.30;;;;;;5144057;23;20433;-84
2021/12/01 09:08:27;;;;;;;5.83;4.70;;;8.20;98.30;;;;;;5152423;23;21027;-85
2021/12/01 09:10:31;;;;;;;8.60;7.27;;;8.20;98.30;;;;;;5153626;23;20520;-85
2021/12/01 09:12:41;;;;;;;14.80;7.23;;;8.20;98.30;;;;;;5158835;23;20428;-85
2021/12/01 09:14:44;;;;;;;7.60;6.77;;;8.20;98.30;;;;;;5154103;23;20428;-86
2021/12/01 09:16:48;;;;;;;7.53;6.30;;;8.20;98.30;;;;;;5151951;23;20429;-84
2021/12/01 09:18:51;;;;;;;9.90;6.47;;;8.20;98.30;;;;;;5150816;23;20425;-84
2021/12/01 09:20:54;;;;;;;8.13;6.13;;;8.20;98.30;;;;;;5151312;23;20444;-84
2021/12/01 09:22:58;;;;;;;9.03;8.13;;;8.20;98.30;;;;;;5150832;23;20537;-84
2021/12/01 09:25:01;;;;;;;11.43;7.20;;;8.20;98.30;;;;;;5151360;23;20447;-85
2021/12/01 09:27:04;;;;;;;9.27;8.37;;;8.10;98.30;;;;;;5151208;23;20425;-85
2021/12/01 09:29:09;;;;;;;7.80;6.17;;;8.10;98.30;;;;;;5142769;23;20483;-84
2021/12/01 09:31:13;;;;;;;8.67;7.30;;;8.10;98.30;;;;;;5150893;23;20493;-85
2021/12/01 09:33:17;;;;;;;8.27;6.30;;;8.10;98.30;;;;;;5150235;23;20444;-85
2021/12/01 09:35:21;;;;;;;6.80;5.33;;;8.10;98.30;;;;;;5150378;23;20437;-85
2021/12/01 09:37:24;;;;;;;8.13;7.33;;;8.10;98.30;;;;;;5150923;23;20437;-86
2021/12/01 09:39:27;;;;;;;7.10;6.00;;;8.10;98.30;;;;;;5151298;23;20990;-86
2021/12/01 09:41:31;;;;;;;7.97;6.97;;;8.10;98.30;;;;;;5151073;23;20470;-86
2021/12/01 09:43:34;;;;;;;7.60;6.80;;;8.10;98.30;;;;;;5150413;23;20450;-85
2021/12/01 09:45:39;;;;;;;6.97;5.53;;;8.00;98.30;;;;;;5150893;23;20432;-85
2021/12/01 09:47:42;;;;;;;8.60;6.27;;;8.00;98.30;;;;;;5150626;23;20461;-84
2021/12/01 09:49:46;;;;;;;9.27;6.23;;;8.00;98.30;;;;;;5150877;23;20429;-84
2021/12/01 09:51:49;;;;;;;8.40;7.27;;;8.00;98.30;;;;;;5151023;23;20453;-86
2021/12/01 09:53:54;;;;;;;8.00;7.20;;;8.00;98.30;;;;;;5150565;23;20913;-85
2021/12/01 09:55:57;;;;;;;8.70;6.73;;;8.10;98.30;;;;;;5150455;23;20923;-85
2021/12/01 09:58:04;;;;;;;8.40;7.60;;;8.10;98.30;;;;;;5150716;23;20500;-85
2021/12/01 10:00:09;;;;;;;7.90;6.93;;;8.10;98.30;;;;;;5150441;23;20486;-85
2021/12/01 10:02:13;;;;;;;8.20;7.13;;;8.10;98.30;;;;;;5150232;23;20531;-84
2021/12/01 10:04:16;;;;;;;7.03;6.07;;;8.10;98.30;;;;;;5149696;23;20776;-85
2021/12/01 10:06:21;;;;;;;8.60;7.73;;;8.10;98.30;;;;;;5150548;23;20457;-85
2021/12/01 10:08:27;;;;;;;7.80;7.00;;;8.10;98.30;;;;;;5149651;23;20915;-85
2021/12/01 10:10:38;;;;;;;6.20;5.60;;;8.10;98.30;;;;;;5149951;23;20444;-86
2021/12/01 10:12:47;;;;;;;9.33;6.90;;;8.10;98.30;;;;;;5150674;23;20721;-85
2021/12/01 10:14:52;;;;;;;6.17;5.67;;;8.10;98.30;;;;;;5150610;23;20421;-85
2021/12/01 10:16:55;;;;;;;7.00;6.37;;;8.10;98.30;;;;;;5150494;23;20508;-84
2021/12/01 10:19:02;;;;;;;7.20;6.40;;;8.10;98.30;;;;;;5150461;23;20431;-86
2021/12/01 10:21:08;;;;;;;7.40;6.70;;;8.20;98.30;;;;;;5151372;23;20445;-85
2021/12/01 10:23:14;;;;;;;6.13;5.53;;;8.10;98.30;;;;;;5150183;23;20465;-85
2021/12/01 10:25:30;;;;;;;6.60;5.57;;;8.20;98.30;;;;;;5151007;23;20420;-85
2021/12/01 10:27:38;;;;;;;7.03;6.37;;;8.20;98.30;;;;;;5150076;23;20519;-87
2021/12/01 10:29:44;;;;;;;5.30;4.80;;;8.20;98.30;;;;;;5151538;23;20484;-86
2021/12/01 10:31:49;;;;;;;5.07;4.43;;;8.20;98.30;;;;;;5151802;23;20445;-88
2021/12/01 10:33:53;;;;;;;6.37;5.77;;;8.20;98.30;;;;;;5151440;23;20443;-87
2021/12/01 10:36:01;;;;;;;5.70;5.10;;;8.20;98.30;;;;;;5152035;23;20457;-89
2021/12/01 10:38:08;;;;;;;6.87;5.83;;;8.20;98.30;;;;;;5151454;23;20433;-87
2021/12/01 10:40:15;;;;;;;7.50;5.60;;;8.20;98.30;;;;;;5151503;23;20480;-88
2021/12/01 10:42:18;;;;;;;6.83;6.23;;;8.20;98.30;;;;;;5152833;23;20419;-88
2021/12/01 10:44:25;;;;;;;5.20;4.73;;;8.30;98.30;;;;;;5151064;23;20441;-88
2021/12/01 10:46:29;;;;;;;5.70;5.10;;;8.30;98.30;;;;;;5152033;23;20449;-87
2021/12/01 10:48:33;;;;;;;5.80;5.07;;;8.30;98.30;;;;;;5151804;23;20425;-88
2021/12/01 10:50:40;;;;;;;5.97;5.40;;;8.30;98.30;;;;;;5151615;23;20490;-88
2021/12/01 10:52:49;;;;;;;5.63;5.13;;;8.30;98.30;;;;;;5151688;23;20507;-88
2021/12/01 10:55:05;;;;;;;5.70;5.20;;;8.30;98.30;;;;;;5151389;23;20421;-88
2021/12/01 10:57:22;;;;;;;5.93;5.33;;;8.30;98.30;;;;;;5151840;23;20432;-89
2021/12/01 10:59:27;;;;;;;5.10;4.60;;;8.40;98.30;;;;;;5151315;23;20428;-89
2021/12/01 11:01:31;;;;;;;5.50;5.00;;;8.40;98.30;;;;;;5151482;23;20446;-88